createdAt,value
2018-08-17T00:00:00.936Z,6.60
2018-08-17T00:02:30.459Z,7.30
2018-08-17T00:05:02.236Z,7.87
2018-08-17T00:07:35.176Z,7.27
2018-08-17T00:10:07.406Z,7.37
2018-08-17T00:12:37.152Z,7.30
2018-08-17T00:15:11.923Z,7.47
2018-08-17T00:17:42.592Z,7.60
2018-08-17T00:20:13.256Z,6.90
2018-08-17T00:22:47.205Z,6.70
2018-08-17T00:25:20.415Z,6.17
2018-08-17T00:27:53.748Z,6.63
2018-08-17T00:30:25.520Z,5.60
2018-08-17T00:32:54.335Z,6.67
2018-08-17T00:35:25.520Z,6.77
2018-08-17T00:37:58.267Z,5.80
2018-08-17T00:40:27.808Z,5.80
2018-08-17T00:43:01.201Z,6.77
2018-08-17T00:45:30.903Z,5.93
2018-08-17T00:48:01.152Z,6.27
2018-08-17T00:50:31.768Z,5.90
2018-08-17T00:53:01.862Z,5.90
2018-08-17T00:55:33.470Z,5.90
2018-08-17T00:58:05.065Z,6.33
2018-08-17T01:00:35.262Z,6.10
2018-08-17T01:03:08.780Z,5.90
2018-08-17T01:05:39.084Z,6.23
2018-08-17T01:08:09.338Z,6.23
2018-08-17T01:10:39.221Z,6.23
2018-08-17T01:13:13.317Z,7.07
2018-08-17T01:15:43.315Z,7.17
2018-08-17T01:18:15.137Z,6.83
2018-08-17T01:20:44.403Z,6.73
2018-08-17T01:23:15.816Z,6.67
2018-08-17T01:25:54.363Z,6.50
2018-08-17T01:28:24.829Z,6.83
2018-08-17T01:30:55.604Z,7.53
2018-08-17T01:33:26.233Z,7.20
2018-08-17T01:35:55.883Z,7.47
2018-08-17T01:38:26.222Z,7.77
2018-08-17T01:40:56.363Z,7.30
2018-08-17T01:43:28.050Z,7.53
2018-08-17T01:45:56.952Z,7.33
2018-08-17T01:48:28.045Z,7.07
2018-08-17T01:50:58.269Z,6.90
2018-08-17T01:53:33.988Z,7.13
2018-08-17T01:56:04.721Z,8.47
2018-08-17T01:58:38.483Z,7.87
2018-08-17T02:01:10.319Z,8.40
2018-08-17T02:03:40.016Z,7.23
2018-08-17T02:06:12.257Z,8.50
2018-08-17T02:08:41.875Z,8.23
2018-08-17T02:11:15.751Z,8.77
2018-08-17T02:13:47.724Z,8.27
2018-08-17T02:16:20.188Z,8.13
2018-08-17T02:18:49.900Z,8.50
2018-08-17T02:21:21.935Z,8.30
2018-08-17T02:23:52.804Z,8.43
2018-08-17T02:26:22.579Z,8.40
2018-08-17T02:28:51.759Z,9.50
2018-08-17T02:31:23.356Z,8.53
2018-08-17T02:33:59.286Z,8.30
2018-08-17T02:36:29.920Z,7.43
2018-08-17T02:39:00.612Z,7.90
2018-08-17T02:41:29.957Z,8.27
2018-08-17T02:44:01.813Z,7.70
2018-08-17T02:46:33.658Z,6.87
2018-08-17T02:49:06.709Z,6.80
2018-08-17T02:51:43.253Z,8.00
2018-08-17T02:54:13.101Z,8.17
2018-08-17T02:56:43.464Z,7.03
2018-08-17T02:59:16.586Z,7.40
2018-08-17T03:01:48.800Z,6.93
2018-08-17T03:04:20.553Z,6.47
2018-08-17T03:06:51.046Z,7.37
2018-08-17T03:09:21.160Z,6.97
2018-08-17T03:11:51.103Z,6.13
2018-08-17T03:14:20.640Z,6.70
2018-08-17T03:17:00.234Z,6.57
2018-08-17T03:19:33.357Z,7.00
2018-08-17T03:22:05.186Z,6.77
2018-08-17T03:24:35.018Z,7.17
2018-08-17T03:27:08.524Z,6.43
2018-08-17T03:29:40.092Z,5.73
2018-08-17T03:32:09.433Z,6.47
2018-08-17T03:34:39.256Z,6.50
2018-08-17T03:37:10.290Z,6.90
2018-08-17T03:39:41.728Z,5.87
2018-08-17T03:42:11.452Z,6.30
2018-08-17T03:44:47.975Z,6.53
2018-08-17T03:47:19.827Z,6.77
2018-08-17T03:49:49.846Z,6.80
2018-08-17T03:52:22.856Z,7.07
2018-08-17T03:54:51.792Z,6.00
2018-08-17T03:57:20.825Z,7.03
2018-08-17T03:59:50.478Z,6.40
2018-08-17T04:02:19.384Z,6.57
2018-08-17T04:04:49.453Z,6.43
2018-08-17T04:07:23.254Z,6.07
2018-08-17T04:09:54.788Z,6.10
2018-08-17T04:12:28.747Z,6.23
2018-08-17T04:14:59.847Z,7.43
2018-08-17T04:17:30.808Z,6.17
2018-08-17T04:20:00.468Z,6.60
2018-08-17T04:22:32.977Z,6.90
2018-08-17T04:25:05.031Z,6.50
2018-08-17T04:27:36.421Z,6.23
2018-08-17T04:30:08.357Z,6.90
2018-08-17T04:32:39.227Z,6.70
2018-08-17T04:35:10.819Z,6.63
2018-08-17T04:37:43.439Z,6.40
2018-08-17T04:40:14.106Z,7.33
2018-08-17T04:42:47.533Z,7.73
2018-08-17T04:45:17.528Z,8.10
2018-08-17T04:47:49.105Z,8.10
2018-08-17T04:50:20.801Z,8.33
2018-08-17T04:52:53.049Z,8.17
2018-08-17T04:55:29.143Z,8.23
2018-08-17T04:58:02.216Z,7.87
2018-08-17T05:00:40.300Z,7.93
2018-08-17T05:03:11.754Z,8.37
2018-08-17T05:05:40.732Z,8.47
2018-08-17T05:08:10.116Z,13.00
2018-08-17T05:10:39.994Z,13.37
2018-08-17T05:13:11.349Z,7.67
2018-08-17T05:15:40.804Z,8.07
2018-08-17T05:18:15.500Z,7.77
2018-08-17T05:20:44.480Z,7.43
2018-08-17T05:23:13.661Z,8.07
2018-08-17T05:25:42.747Z,7.63
2018-08-17T05:28:16.803Z,7.97
2018-08-17T05:30:47.639Z,7.17
2018-08-17T05:33:17.710Z,7.37
2018-08-17T05:35:47.157Z,7.27
2018-08-17T05:38:17.756Z,6.77
2018-08-17T05:40:48.868Z,6.93
2018-08-17T05:43:18.025Z,6.50
2018-08-17T05:45:49.809Z,6.90
2018-08-17T05:48:20.071Z,6.20
2018-08-17T05:50:50.093Z,6.83
2018-08-17T05:53:19.875Z,6.70
2018-08-17T05:55:48.242Z,6.40
2018-08-17T05:58:16.580Z,6.70
2018-08-17T06:00:46.287Z,6.20
2018-08-17T06:03:15.338Z,6.30
2018-08-17T06:05:45.259Z,5.50
2018-08-17T06:08:14.880Z,5.87
2018-08-17T06:10:44.783Z,5.60
2018-08-17T06:20:14.532Z,5.93
2018-08-17T06:22:43.069Z,6.00
2018-08-17T06:25:14.139Z,5.80
2018-08-17T06:27:44.420Z,5.53
2018-08-17T06:30:14.408Z,5.30
2018-08-17T06:32:43.365Z,5.73
2018-08-17T06:35:14.496Z,4.90
2018-08-17T06:37:43.590Z,5.43
2018-08-17T06:40:12.310Z,5.93
2018-08-17T06:46:13.623Z,5.87
2018-08-17T06:48:41.961Z,5.80
2018-08-17T06:51:10.682Z,5.20
2018-08-17T06:53:39.441Z,4.67
2018-08-17T06:56:07.836Z,4.70
2018-08-17T06:58:36.372Z,5.30
2018-08-17T07:01:05.734Z,5.97
2018-08-17T07:03:34.740Z,6.83
2018-08-17T07:06:03.290Z,5.83
2018-08-17T07:08:32.792Z,5.80
2018-08-17T07:11:01.182Z,6.70
2018-08-17T07:13:31.055Z,6.80
2018-08-17T07:15:59.465Z,7.97
2018-08-17T07:18:29.400Z,8.47
2018-08-17T07:20:58.720Z,9.80
2018-08-17T07:23:29.060Z,12.03
2018-08-17T07:25:58.439Z,11.40
2018-08-17T07:28:27.776Z,12.53
2018-08-17T07:30:56.388Z,12.27
2018-08-17T07:33:25.271Z,12.53
2018-08-17T07:35:54.733Z,13.20
2018-08-17T07:38:23.085Z,12.23
2018-08-17T07:40:51.440Z,13.03
2018-08-17T07:43:20.953Z,13.03
2018-08-17T07:45:53.108Z,13.27
2018-08-17T07:48:22.882Z,13.60
2018-08-17T07:50:51.268Z,13.97
2018-08-17T07:53:21.783Z,13.53
2018-08-17T07:55:50.741Z,13.20
2018-08-17T07:58:20.060Z,13.80
2018-08-17T08:00:49.468Z,13.20
2018-08-17T08:03:18.281Z,14.77
2018-08-17T08:05:47.673Z,16.17
2018-08-17T08:08:16.512Z,15.93
2018-08-17T08:10:44.873Z,16.10
2018-08-17T08:13:14.216Z,16.60
2018-08-17T08:15:43.181Z,19.47
2018-08-17T08:18:12.624Z,18.30
2018-08-17T08:20:43.268Z,17.80
2018-08-17T08:23:29.731Z,19.13
2018-08-17T08:25:59.307Z,17.40
2018-08-17T08:28:28.631Z,21.37
2018-08-17T08:30:58.240Z,20.97
2018-08-17T08:33:27.288Z,21.77
2018-08-17T08:35:55.857Z,22.57
2018-08-17T08:38:24.319Z,23.73
2018-08-17T08:40:53.216Z,27.13
2018-08-17T08:43:22.604Z,26.50
2018-08-17T08:45:51.519Z,24.53
2018-08-17T08:48:20.565Z,21.83
2018-08-17T08:50:50.133Z,22.20
2018-08-17T08:53:18.868Z,25.43
2018-08-17T08:55:47.506Z,24.50
2018-08-17T08:58:16.732Z,24.63
2018-08-17T09:00:45.854Z,25.83
2018-08-17T09:03:16.426Z,24.20
2018-08-17T09:05:45.610Z,33.47
2018-08-17T09:08:14.309Z,23.33
2018-08-17T09:10:43.124Z,20.70
2018-08-17T09:13:12.848Z,17.60
2018-08-17T09:15:42.080Z,23.12
2018-08-17T09:18:13.014Z,21.53
2018-08-17T09:20:41.863Z,18.53
2018-08-17T09:23:12.683Z,21.40
2018-08-17T09:25:43.600Z,20.70
2018-08-17T09:28:12.004Z,20.33
2018-08-17T09:30:40.906Z,19.20
2018-08-17T09:33:10.549Z,19.83
2018-08-17T09:35:38.912Z,18.83
2018-08-17T09:38:07.720Z,22.52
2018-08-17T09:40:36.501Z,20.03
2018-08-17T09:43:05.809Z,18.70
2018-08-17T09:45:34.582Z,18.97
2018-08-17T09:48:02.970Z,17.23
2018-08-17T09:50:31.330Z,16.57
2018-08-17T09:53:00.427Z,13.60
2018-08-17T09:55:30.768Z,15.63
2018-08-17T09:57:59.477Z,16.27
2018-08-17T10:00:34.352Z,14.93
2018-08-17T10:04:12.197Z,26.03
2018-08-17T10:06:45.849Z,16.40
2018-08-17T10:09:19.777Z,13.40
2018-08-17T10:11:50.042Z,12.07
2018-08-17T10:14:19.367Z,13.07
2018-08-17T10:16:47.945Z,12.50
2018-08-17T10:19:17.603Z,13.23
2018-08-17T10:21:50.692Z,12.53
2018-08-17T10:24:19.713Z,13.90
2018-08-17T10:26:50.624Z,12.87
2018-08-17T10:29:22.618Z,13.67
2018-08-17T10:31:53.643Z,13.80
2018-08-17T10:34:26.428Z,12.07
2018-08-17T10:36:55.244Z,10.73
2018-08-17T10:39:24.457Z,12.00
2018-08-17T10:41:53.704Z,11.37
2018-08-17T10:44:22.876Z,11.03
2018-08-17T10:46:51.456Z,11.20
2018-08-17T10:49:20.076Z,9.47
2018-08-17T10:51:49.816Z,10.83
2018-08-17T10:54:18.469Z,9.50
2018-08-17T10:56:47.402Z,9.68
2018-08-17T10:59:15.811Z,31.87
2018-08-17T11:01:46.148Z,15.03
2018-08-17T11:04:16.488Z,10.23
2018-08-17T11:06:45.783Z,7.20
2018-08-17T11:09:17.310Z,8.25
2018-08-17T11:11:46.458Z,9.25
2018-08-17T11:14:17.217Z,8.48
2018-08-17T11:16:48.021Z,7.65
2018-08-17T11:19:16.920Z,7.80
2018-08-17T11:21:50.473Z,7.60
2018-08-17T11:24:19.225Z,17.20
2018-08-17T11:26:47.632Z,6.85
2018-08-17T11:29:17.034Z,6.83
2018-08-17T11:31:46.287Z,6.60
2018-08-17T11:34:15.498Z,7.05
2018-08-17T11:36:44.732Z,7.73
2018-08-17T11:39:13.404Z,6.87
2018-08-17T11:41:42.792Z,7.08
2018-08-17T11:44:15.976Z,9.45
2018-08-17T11:46:46.200Z,7.28
2018-08-17T11:49:15.544Z,6.85
2018-08-17T11:51:44.567Z,7.22
2018-08-17T11:54:13.665Z,6.33
2018-08-17T11:56:43.264Z,6.90
2018-08-17T11:59:11.656Z,6.80
2018-08-17T12:01:40.025Z,6.58
2018-08-17T12:04:10.652Z,7.22
2018-08-17T12:06:39.015Z,7.12
2018-08-17T12:09:08.712Z,8.03
2018-08-17T12:11:37.108Z,7.37
2018-08-17T12:14:07.268Z,6.72
2018-08-17T12:16:36.436Z,7.28
2018-08-17T12:19:07.121Z,7.53
2018-08-17T12:21:36.147Z,7.17
2018-08-17T12:24:04.526Z,7.05
2018-08-17T12:26:37.932Z,7.60
2018-08-17T12:29:06.841Z,7.83
2018-08-17T12:31:35.456Z,7.00
2018-08-17T12:34:03.868Z,6.92
2018-08-17T12:36:33.241Z,6.72
2018-08-17T12:39:02.076Z,7.35
2018-08-17T12:41:32.349Z,7.05
2018-08-17T12:44:03.083Z,7.08
2018-08-17T12:46:32.369Z,6.83
2018-08-17T12:49:00.956Z,7.47
2018-08-17T12:51:29.292Z,7.87
2018-08-17T12:53:58.550Z,6.93
2018-08-17T12:56:26.931Z,7.00
2018-08-17T12:58:55.696Z,6.87
2018-08-17T13:01:24.460Z,6.83
2018-08-17T13:03:53.460Z,7.03
2018-08-17T13:06:21.986Z,6.57
2018-08-17T13:08:51.837Z,6.73
2018-08-17T13:11:22.125Z,7.10
2018-08-17T13:13:53.721Z,6.60
2018-08-17T13:16:22.563Z,6.60
2018-08-17T13:18:50.890Z,6.37
2018-08-17T13:21:20.250Z,6.00
2018-08-17T13:23:50.161Z,6.33
2018-08-17T13:26:19.432Z,6.37
2018-08-17T13:28:49.396Z,6.28
2018-08-17T13:31:18.389Z,6.72
2018-08-17T13:33:46.733Z,6.95
2018-08-17T13:36:17.569Z,6.53
2018-08-17T13:38:46.876Z,6.00
2018-08-17T13:41:15.229Z,5.93
2018-08-17T13:43:43.587Z,5.73
2018-08-17T13:46:11.979Z,5.80
2018-08-17T13:48:41.088Z,6.40
2018-08-17T13:51:09.576Z,5.90
2018-08-17T13:53:38.523Z,7.07
2018-08-17T13:56:06.916Z,6.87
2018-08-17T13:58:37.383Z,6.70
2018-08-17T14:01:07.352Z,6.20
2018-08-17T14:03:36.753Z,6.20
2018-08-17T14:06:05.435Z,6.13
2018-08-17T14:08:35.571Z,6.83
2018-08-17T14:11:03.968Z,5.80
2018-08-17T14:13:33.836Z,6.20
2018-08-17T14:16:04.065Z,14.93
2018-08-17T14:18:33.064Z,6.40
2018-08-17T14:21:01.678Z,6.13
2018-08-17T14:23:30.653Z,5.60
2018-08-17T14:25:59.341Z,5.60
2018-08-17T14:28:28.047Z,5.50
2018-08-17T14:30:57.051Z,5.90
2018-08-17T14:33:27.401Z,5.00
2018-08-17T14:35:56.336Z,4.97
2018-08-17T14:38:33.720Z,5.10
2018-08-17T14:41:03.363Z,4.47
2018-08-17T14:43:31.972Z,4.30
2018-08-17T14:46:00.664Z,4.13
2018-08-17T14:48:30.084Z,4.60
2018-08-17T14:50:59.144Z,4.60
2018-08-17T14:53:28.941Z,4.43
2018-08-17T14:55:57.509Z,4.30
2018-08-17T14:58:26.293Z,4.97
2018-08-17T15:01:57.651Z,4.37
2018-08-17T15:04:26.160Z,4.40
2018-08-17T15:06:54.616Z,4.93
2018-08-17T15:09:23.036Z,4.80
2018-08-17T15:11:52.292Z,4.70
2018-08-17T15:14:21.129Z,4.60
2018-08-17T15:16:51.428Z,5.10
2018-08-17T15:19:20.736Z,5.13
2018-08-17T15:21:50.484Z,5.03
2018-08-17T15:24:19.760Z,5.07
2018-08-17T15:26:49.592Z,5.17
2018-08-17T15:29:18.636Z,5.70
2018-08-17T15:31:47.987Z,5.70
2018-08-17T15:34:31.149Z,5.93
2018-08-17T15:37:01.320Z,6.50
2018-08-17T15:39:29.644Z,6.40
2018-08-17T15:41:58.973Z,5.90
2018-08-17T15:44:28.000Z,6.63
2018-08-17T15:46:59.020Z,6.70
2018-08-17T15:49:34.880Z,6.67
2018-08-17T15:52:06.384Z,7.50
2018-08-17T15:54:34.671Z,7.13
2018-08-17T15:57:03.136Z,6.87
2018-08-17T15:59:33.290Z,7.30
2018-08-17T16:02:02.466Z,7.17
2018-08-17T16:04:31.609Z,6.70
2018-08-17T16:07:01.148Z,6.23
2018-08-17T16:09:30.191Z,6.30
2018-08-17T16:11:59.337Z,6.20
2018-08-17T16:14:28.240Z,6.63
2018-08-17T16:16:56.945Z,6.97
2018-08-17T16:19:25.575Z,7.00
2018-08-17T16:21:55.364Z,6.73
2018-08-17T16:24:25.784Z,6.43
2018-08-17T16:26:54.572Z,19.13
2018-08-17T16:29:23.825Z,6.87
2018-08-17T16:31:52.585Z,7.40
2018-08-17T16:34:20.913Z,7.60
2018-08-17T16:36:49.684Z,8.10
2018-08-17T16:39:18.781Z,6.47
2018-08-17T16:41:49.210Z,6.30
2018-08-17T16:44:18.437Z,6.03
2018-08-17T16:46:46.767Z,6.07
2018-08-17T16:49:15.831Z,5.60
2018-08-17T16:51:44.157Z,5.60
2018-08-17T16:54:14.580Z,6.30
2018-08-17T16:56:43.011Z,5.77
2018-08-17T16:59:12.244Z,5.80
2018-08-17T17:01:43.091Z,6.03
2018-08-17T17:04:12.517Z,5.57
2018-08-17T17:06:41.856Z,5.67
2018-08-17T17:09:11.896Z,5.40
2018-08-17T17:11:40.431Z,5.50
2018-08-17T17:14:08.833Z,5.97
2018-08-17T17:16:44.788Z,5.67
2018-08-17T17:19:15.598Z,5.93
2018-08-17T17:21:47.952Z,6.43
2018-08-17T17:24:17.491Z,6.27
2018-08-17T17:26:45.880Z,6.17
2018-08-17T17:29:15.145Z,6.13
2018-08-17T17:31:44.912Z,10.97
2018-08-17T17:34:14.329Z,6.77
2018-08-17T17:36:42.679Z,7.60
2018-08-17T17:39:13.133Z,7.10
2018-08-17T17:41:42.672Z,7.33
2018-08-17T17:44:13.734Z,7.70
2018-08-17T17:46:42.104Z,8.03
2018-08-17T17:49:11.268Z,7.87
2018-08-17T17:51:40.825Z,8.03
2018-08-17T17:54:12.240Z,8.47
2018-08-17T17:56:41.232Z,8.27
2018-08-17T17:59:18.689Z,8.13
2018-08-17T18:01:47.769Z,8.03
2018-08-17T18:04:17.560Z,7.93
2018-08-17T18:06:47.660Z,8.07
2018-08-17T18:09:18.956Z,7.93
2018-08-17T18:11:49.301Z,8.70
2018-08-17T18:14:18.764Z,8.03
2018-08-17T18:16:48.155Z,7.77
2018-08-17T18:19:16.599Z,8.33
2018-08-17T18:21:47.016Z,7.80
2018-08-17T18:24:17.694Z,9.20
2018-08-17T18:26:48.272Z,9.20
2018-08-17T18:29:19.485Z,9.33
2018-08-17T18:31:48.485Z,9.23
2018-08-17T18:34:19.374Z,9.23
2018-08-17T18:36:48.361Z,9.00
2018-08-17T18:39:19.800Z,8.70
2018-08-17T18:41:52.508Z,9.03
2018-08-17T18:44:21.628Z,8.77
2018-08-17T18:46:51.954Z,8.00
2018-08-17T18:49:22.000Z,7.77
2018-08-17T18:51:52.302Z,7.93
2018-08-17T18:54:22.114Z,8.30
2018-08-17T18:56:51.352Z,7.70
2018-08-17T18:59:21.498Z,9.10
2018-08-17T19:01:51.248Z,10.00
2018-08-17T19:04:19.612Z,10.03
2018-08-17T19:06:49.175Z,10.47
2018-08-17T19:09:17.809Z,11.07
2018-08-17T19:11:48.867Z,11.30
2018-08-17T19:14:18.601Z,9.10
2018-08-17T19:16:47.516Z,8.23
2018-08-17T19:19:15.975Z,7.20
2018-08-17T19:21:45.352Z,8.63
2018-08-17T19:24:16.815Z,8.50
2018-08-17T19:26:46.326Z,8.03
2018-08-17T19:29:14.910Z,7.30
2018-08-17T19:31:49.338Z,7.73
2018-08-17T19:34:19.403Z,8.40
2018-08-17T19:36:47.856Z,7.60
2018-08-17T19:39:20.758Z,6.97
2018-08-17T19:41:53.211Z,7.60
2018-08-17T19:44:22.396Z,7.97
2018-08-17T19:46:52.522Z,10.00
2018-08-17T19:49:24.568Z,10.30
2018-08-17T19:51:54.216Z,7.57
2018-08-17T19:54:24.163Z,7.70
2018-08-17T19:56:54.026Z,8.07
2018-08-17T19:59:23.164Z,8.33
2018-08-17T20:01:54.226Z,8.83
2018-08-17T20:04:23.893Z,9.27
2018-08-17T20:06:53.703Z,8.17
2018-08-17T20:09:23.236Z,7.77
2018-08-17T20:11:53.292Z,7.53
2018-08-17T20:14:23.472Z,8.10
2018-08-17T20:16:52.868Z,7.67
2018-08-17T20:19:22.104Z,7.57
2018-08-17T20:21:53.599Z,7.50
2018-08-17T20:24:22.744Z,7.70
2018-08-17T20:26:53.960Z,8.60
2018-08-17T20:29:22.403Z,8.03
2018-08-17T20:31:54.536Z,7.93
2018-08-17T20:34:25.848Z,7.53
2018-08-17T20:36:57.224Z,8.37
2018-08-17T20:39:27.264Z,7.53
2018-08-17T20:41:56.126Z,7.63
2018-08-17T20:44:25.182Z,7.37
2018-08-17T20:46:55.884Z,7.63
2018-08-17T20:49:25.256Z,7.87
2018-08-17T20:51:58.688Z,7.63
2018-08-17T20:54:29.630Z,8.03
2018-08-17T20:57:00.047Z,6.90
2018-08-17T20:59:36.169Z,7.03
2018-08-17T21:02:06.098Z,7.63
2018-08-17T21:04:36.191Z,7.67
2018-08-17T21:07:06.048Z,8.40
2018-08-17T21:09:37.618Z,7.27
2018-08-17T21:12:07.497Z,7.37
2018-08-17T21:14:38.151Z,7.67
2018-08-17T21:17:08.995Z,7.37
2018-08-17T21:19:40.367Z,7.17
2018-08-17T21:22:11.281Z,6.17
2018-08-17T21:24:41.832Z,6.30
2018-08-17T21:27:11.314Z,7.00
2018-08-17T21:29:41.073Z,6.77
2018-08-17T21:32:11.642Z,6.50
2018-08-17T21:34:41.983Z,5.90
2018-08-17T21:37:11.814Z,6.23
2018-08-17T21:39:42.267Z,6.13
2018-08-17T21:42:10.985Z,6.47
2018-08-17T21:44:40.828Z,6.20
2018-08-17T21:47:10.489Z,5.30
2018-08-17T21:49:42.833Z,5.70
2018-08-17T21:52:17.881Z,5.80
2018-08-17T21:54:48.707Z,5.37
2018-08-17T21:57:18.188Z,5.43
2018-08-17T21:59:49.219Z,5.67
2018-08-17T22:02:20.022Z,5.37
2018-08-17T22:04:50.323Z,5.63
2018-08-17T22:07:25.910Z,5.63
2018-08-17T22:09:57.153Z,5.60
2018-08-17T22:12:27.491Z,5.83
2018-08-17T22:14:58.087Z,5.53
2018-08-17T22:17:37.277Z,5.57
2018-08-17T22:20:07.748Z,5.70
2018-08-17T22:22:41.501Z,5.30
2018-08-17T22:25:16.795Z,5.70
2018-08-17T22:27:45.296Z,5.37
2018-08-17T22:30:23.578Z,5.93
2018-08-17T22:32:52.085Z,5.53
2018-08-17T22:35:20.916Z,5.80
2018-08-17T22:37:51.165Z,5.17
2018-08-17T22:40:21.749Z,5.30
2018-08-17T22:42:51.365Z,5.73
2018-08-17T22:45:22.487Z,5.37
2018-08-17T22:47:53.191Z,4.83
2018-08-17T22:50:22.107Z,5.60
2018-08-17T22:52:52.234Z,5.80
2018-08-17T22:55:22.546Z,6.73
2018-08-17T22:57:55.494Z,6.53
2018-08-17T23:00:28.204Z,5.70
2018-08-17T23:02:59.748Z,5.67
2018-08-17T23:05:33.320Z,5.17
2018-08-17T23:08:02.955Z,5.90
2018-08-17T23:10:31.347Z,5.33
2018-08-17T23:13:00.776Z,5.80
2018-08-17T23:15:29.814Z,5.73
2018-08-17T23:18:00.932Z,5.67
2018-08-17T23:20:39.782Z,5.80
2018-08-17T23:23:09.223Z,5.53
2018-08-17T23:25:38.614Z,5.60
2018-08-17T23:28:08.557Z,5.60
2018-08-17T23:30:39.492Z,5.10
2018-08-17T23:33:08.825Z,5.83
2018-08-17T23:35:38.332Z,4.80
2018-08-17T23:38:09.680Z,5.17
2018-08-17T23:40:39.462Z,5.53
2018-08-17T23:43:13.749Z,5.53
2018-08-17T23:45:43.863Z,5.83
2018-08-17T23:48:19.656Z,6.17
2018-08-17T23:50:48.889Z,6.50
2018-08-17T23:53:18.656Z,5.77
2018-08-17T23:55:47.588Z,4.97
2018-08-17T23:58:15.974Z,4.90
